createdAt,value
2017-01-11T00:00:08.302Z,81.07
2017-01-11T00:01:07.843Z,81.72
2017-01-11T00:02:08.377Z,81.66
2017-01-11T00:03:07.912Z,82.06
2017-01-11T00:04:08.520Z,81.63
2017-01-11T00:05:08.059Z,82.54
2017-01-11T00:06:07.929Z,82.62
2017-01-11T00:07:07.541Z,81.76
2017-01-11T00:08:08.100Z,81.08
2017-01-11T00:09:07.584Z,80.82
2017-01-11T00:10:08.186Z,81.50
2017-01-11T00:11:07.769Z,81.29
2017-01-11T00:12:09.469Z,81.46
2017-01-11T00:13:08.727Z,80.31
2017-01-11T00:14:08.229Z,80.47
2017-01-11T00:15:07.723Z,80.65
2017-01-11T00:16:08.317Z,80.79
2017-01-11T00:17:08.318Z,81.19
2017-01-11T00:18:07.850Z,80.68
2017-01-11T00:19:08.360Z,82.19
2017-01-11T00:20:07.960Z,82.41
2017-01-11T00:21:14.964Z,82.30
2017-01-11T00:22:07.459Z,82.98
2017-01-11T00:23:08.181Z,83.31
2017-01-11T00:24:07.841Z,82.69
2017-01-11T00:25:08.534Z,83.15
2017-01-11T00:26:08.054Z,82.37
2017-01-11T00:27:27.504Z,82.21
2017-01-11T00:28:08.111Z,82.54
2017-01-11T00:29:08.040Z,82.31
2017-01-11T00:30:07.644Z,83.42
2017-01-11T00:31:08.172Z,83.30
2017-01-11T00:32:07.735Z,84.01
2017-01-11T00:33:08.288Z,83.30
2017-01-11T00:34:07.875Z,84.41
2017-01-11T00:35:08.623Z,83.72
2017-01-11T00:36:08.208Z,83.19
2017-01-11T00:37:07.826Z,83.16
2017-01-11T00:38:08.359Z,83.11
2017-01-11T00:39:07.904Z,83.15
2017-01-11T00:40:08.495Z,83.01
2017-01-11T00:41:08.033Z,82.61
2017-01-11T00:42:07.577Z,83.14
2017-01-11T00:43:08.106Z,82.73
2017-01-11T00:44:07.566Z,82.83
2017-01-11T00:45:08.154Z,82.99
2017-01-11T00:46:07.674Z,82.47
2017-01-11T00:47:08.361Z,81.10
2017-01-11T00:48:07.987Z,81.84
2017-01-11T00:49:07.524Z,81.24
2017-01-11T00:50:08.008Z,80.25
2017-01-11T00:51:07.601Z,80.15
2017-01-11T00:52:08.140Z,80.31
2017-01-11T00:53:07.934Z,81.60
2017-01-11T00:54:07.515Z,82.81
2017-01-11T00:55:08.402Z,81.80
2017-01-11T00:56:08.013Z,82.42
2017-01-11T00:57:07.671Z,81.83
2017-01-11T00:58:08.272Z,82.31
2017-01-11T00:59:07.835Z,82.20
2017-01-11T01:00:08.629Z,81.10
2017-01-11T01:01:08.284Z,80.68
2017-01-11T01:02:08.133Z,80.46
2017-01-11T01:03:07.860Z,80.29
2017-01-11T01:04:08.430Z,80.07
2017-01-11T01:05:08.098Z,80.26
2017-01-11T01:06:08.176Z,80.14
2017-01-11T01:07:07.833Z,80.47
2017-01-11T01:08:08.403Z,81.52
2017-01-11T01:09:08.001Z,82.35
2017-01-11T01:10:07.485Z,81.56
2017-01-11T01:11:08.113Z,81.41
2017-01-11T01:12:07.741Z,82.47
2017-01-11T01:13:08.480Z,81.20
2017-01-11T01:14:08.260Z,81.04
2017-01-11T01:15:08.012Z,81.96
2017-01-11T01:16:07.773Z,81.75
2017-01-11T01:17:08.441Z,81.61
2017-01-11T01:18:08.180Z,81.81
2017-01-11T01:19:07.782Z,81.49
2017-01-11T01:20:26.803Z,81.42
2017-01-11T01:21:08.361Z,81.16
2017-01-11T01:22:07.921Z,79.96
2017-01-11T01:23:08.555Z,81.28
2017-01-11T01:24:08.126Z,81.00
2017-01-11T01:25:07.637Z,81.16
2017-01-11T01:26:08.209Z,81.90
2017-01-11T01:27:07.990Z,81.93
2017-01-11T01:28:07.691Z,80.26
2017-01-11T01:29:08.032Z,79.42
2017-01-11T01:30:07.578Z,80.72
2017-01-11T01:31:08.162Z,80.87
2017-01-11T01:32:07.685Z,80.26
2017-01-11T01:33:08.239Z,79.59
2017-01-11T01:34:07.734Z,80.60
2017-01-11T01:35:09.380Z,80.13
2017-01-11T01:36:08.144Z,81.74
2017-01-11T01:37:07.810Z,81.70
2017-01-11T01:38:08.353Z,80.57
2017-01-11T01:39:08.002Z,81.34
2017-01-11T01:40:07.615Z,80.82
2017-01-11T01:41:08.208Z,80.66
2017-01-11T01:42:07.702Z,80.74
2017-01-11T01:43:08.264Z,80.11
2017-01-11T01:44:14.900Z,80.72
2017-01-11T01:45:08.575Z,80.87
2017-01-11T01:46:08.215Z,82.02
2017-01-11T01:47:07.713Z,80.49
2017-01-11T01:48:08.295Z,80.16
2017-01-11T01:49:07.914Z,79.86
2017-01-11T01:50:08.717Z,79.68
2017-01-11T01:51:08.235Z,80.15
2017-01-11T01:52:07.768Z,80.43
2017-01-11T01:53:08.392Z,81.24
2017-01-11T01:54:08.018Z,79.88
2017-01-11T01:55:07.547Z,79.57
2017-01-11T01:56:08.222Z,80.76
2017-01-11T01:57:07.818Z,80.88
2017-01-11T01:58:08.371Z,80.56
2017-01-11T01:59:08.067Z,80.73
2017-01-11T02:00:07.731Z,80.86
2017-01-11T02:01:08.356Z,80.62
2017-01-11T02:02:08.014Z,80.71
2017-01-11T02:03:07.719Z,82.02
2017-01-11T02:04:08.238Z,81.22
2017-01-11T02:05:07.792Z,80.80
2017-01-11T02:06:08.337Z,80.32
2017-01-11T02:07:07.876Z,80.15
2017-01-11T02:08:08.353Z,81.05
2017-01-11T02:09:07.879Z,80.85
2017-01-11T02:10:08.456Z,81.14
2017-01-11T02:11:07.979Z,82.20
2017-01-11T02:12:07.471Z,81.06
2017-01-11T02:13:07.965Z,81.41
2017-01-11T02:14:07.737Z,80.90
2017-01-11T02:15:08.266Z,79.86
2017-01-11T02:16:08.217Z,80.17
2017-01-11T02:17:07.896Z,80.20
2017-01-11T02:18:08.477Z,79.81
2017-01-11T02:19:08.030Z,79.52
2017-01-11T02:20:07.548Z,79.76
2017-01-11T02:21:08.227Z,80.27
2017-01-11T02:22:07.858Z,79.68
2017-01-11T02:23:07.729Z,79.76
2017-01-11T02:24:08.025Z,80.90
2017-01-11T02:25:07.753Z,80.18
2017-01-11T02:26:08.278Z,79.61
2017-01-11T02:27:08.062Z,79.49
2017-01-11T02:28:07.518Z,79.98
2017-01-11T02:29:08.106Z,79.57
2017-01-11T02:30:07.650Z,80.21
2017-01-11T02:31:08.203Z,80.36
2017-01-11T02:32:07.807Z,79.92
2017-01-11T02:33:08.444Z,79.77
2017-01-11T02:34:07.983Z,79.91
2017-01-11T02:35:07.505Z,79.47
2017-01-11T02:36:08.363Z,79.75
2017-01-11T02:37:07.890Z,79.85
2017-01-11T02:38:08.462Z,80.08
2017-01-11T02:39:08.153Z,79.81
2017-01-11T02:40:07.612Z,80.82
2017-01-11T02:41:07.802Z,81.42
2017-01-11T02:42:08.464Z,80.83
2017-01-11T02:43:08.018Z,80.26
2017-01-11T02:44:07.597Z,80.15
2017-01-11T02:45:08.123Z,79.81
2017-01-11T02:46:07.669Z,80.48
2017-01-11T02:47:07.976Z,80.90
2017-01-11T02:48:07.497Z,80.18
2017-01-11T02:49:08.112Z,81.28
2017-01-11T02:50:07.654Z,80.91
2017-01-11T02:51:09.115Z,81.71
2017-01-11T02:52:07.701Z,82.29
2017-01-11T02:53:08.515Z,81.58
2017-01-11T02:54:08.068Z,81.35
2017-01-11T02:55:26.589Z,81.34
2017-01-11T02:56:08.140Z,81.48
2017-01-11T02:57:07.723Z,82.20
2017-01-11T02:58:08.315Z,82.31
2017-01-11T02:59:07.930Z,81.53
2017-01-11T03:00:07.520Z,80.37
2017-01-11T03:01:08.963Z,80.51
2017-01-11T03:02:07.497Z,80.38
2017-01-11T03:03:08.049Z,80.38
2017-01-11T03:04:07.814Z,79.80
2017-01-11T03:05:26.962Z,80.49
2017-01-11T03:06:07.550Z,81.24
2017-01-11T03:07:08.053Z,82.03
2017-01-11T03:08:07.665Z,81.76
2017-01-11T03:09:08.419Z,80.85
2017-01-11T03:10:07.891Z,79.89
2017-01-11T03:11:08.032Z,80.58
2017-01-11T03:12:07.599Z,80.32
2017-01-11T03:13:08.203Z,80.28
2017-01-11T03:14:07.770Z,81.02
2017-01-11T03:15:08.335Z,82.29
2017-01-11T03:16:07.930Z,82.65
2017-01-11T03:17:07.594Z,83.00
2017-01-11T03:18:08.421Z,81.58
2017-01-11T03:19:07.966Z,81.20
2017-01-11T03:20:07.468Z,80.97
2017-01-11T03:21:08.037Z,80.77
2017-01-11T03:22:07.530Z,81.22
2017-01-11T03:23:08.189Z,80.47
2017-01-11T03:24:07.654Z,80.87
2017-01-11T03:25:08.198Z,81.53
2017-01-11T03:26:08.017Z,82.06
2017-01-11T03:27:07.524Z,81.68
2017-01-11T03:28:08.103Z,80.57
2017-01-11T03:29:07.586Z,80.51
2017-01-11T03:30:08.163Z,80.62
2017-01-11T03:31:07.701Z,80.92
2017-01-11T03:32:08.273Z,81.53
2017-01-11T03:33:07.787Z,81.73
2017-01-11T03:34:08.377Z,82.07
2017-01-11T03:35:07.907Z,81.51
2017-01-11T03:36:08.484Z,81.20
2017-01-11T03:37:08.068Z,80.67
2017-01-11T03:38:07.651Z,81.09
2017-01-11T03:39:08.175Z,80.53
2017-01-11T03:40:07.770Z,80.63
2017-01-11T03:41:08.300Z,80.86
2017-01-11T03:42:07.926Z,80.30
2017-01-11T03:43:07.416Z,80.48
2017-01-11T03:44:07.944Z,80.57
2017-01-11T03:45:07.541Z,80.51
2017-01-11T03:46:08.103Z,80.40
2017-01-11T03:47:07.655Z,81.63
2017-01-11T03:48:08.320Z,82.05
2017-01-11T03:49:07.895Z,82.66
2017-01-11T03:50:08.523Z,82.19
2017-01-11T03:51:08.136Z,82.42
2017-01-11T03:52:07.715Z,82.46
2017-01-11T03:53:07.555Z,81.53
2017-01-11T03:54:08.103Z,81.38
2017-01-11T03:55:07.643Z,81.93
2017-01-11T03:56:17.752Z,81.47
2017-01-11T03:57:08.337Z,81.25
2017-01-11T03:58:07.875Z,80.83
2017-01-11T03:59:28.017Z,80.85
2017-01-11T04:00:07.654Z,81.33
2017-01-11T04:01:08.248Z,81.90
2017-01-11T04:02:07.965Z,82.15
2017-01-11T04:03:07.470Z,82.20
2017-01-11T04:04:07.985Z,82.20
2017-01-11T04:05:07.732Z,82.17
2017-01-11T04:06:08.243Z,82.84
2017-01-11T04:07:07.848Z,83.75
2017-01-11T04:08:08.380Z,82.77
2017-01-11T04:09:08.156Z,82.41
2017-01-11T04:10:07.735Z,81.90
2017-01-11T04:11:08.336Z,83.05
2017-01-11T04:12:07.898Z,82.35
2017-01-11T04:13:09.592Z,82.21
2017-01-11T04:14:08.666Z,82.55
2017-01-11T04:15:08.163Z,82.10
2017-01-11T04:16:07.710Z,81.05
2017-01-11T04:17:08.323Z,80.58
2017-01-11T04:18:07.783Z,81.73
2017-01-11T04:19:08.390Z,81.68
2017-01-11T04:20:08.070Z,81.75
2017-01-11T04:21:07.523Z,82.75
2017-01-11T04:22:08.039Z,81.93
2017-01-11T04:23:07.636Z,82.60
2017-01-11T04:24:08.134Z,81.91
2017-01-11T04:25:07.636Z,82.20
2017-01-11T04:26:08.184Z,83.18
2017-01-11T04:27:07.675Z,82.86
2017-01-11T04:28:08.298Z,82.32
2017-01-11T04:29:07.933Z,82.39
2017-01-11T04:30:08.515Z,82.52
2017-01-11T04:31:08.178Z,82.39
2017-01-11T04:32:07.689Z,82.60
2017-01-11T04:33:08.456Z,82.36
2017-01-11T04:34:08.121Z,82.96
2017-01-11T04:35:07.650Z,82.36
2017-01-11T04:36:08.250Z,82.41
2017-01-11T04:37:07.735Z,82.22
2017-01-11T04:38:08.352Z,82.23
2017-01-11T04:39:07.822Z,81.11
2017-01-11T04:40:08.489Z,80.90
2017-01-11T04:41:08.049Z,81.32
2017-01-11T04:42:07.615Z,81.62
2017-01-11T04:43:08.270Z,81.82
2017-01-11T04:44:07.820Z,80.64
2017-01-11T04:45:08.400Z,80.89
2017-01-11T04:46:08.213Z,81.39
2017-01-11T04:47:07.750Z,81.65
2017-01-11T04:48:08.292Z,82.51
2017-01-11T04:49:07.897Z,81.66
2017-01-11T04:50:08.777Z,81.54
2017-01-11T04:51:08.364Z,81.15
2017-01-11T04:52:08.109Z,82.12
2017-01-11T04:53:07.893Z,81.67
2017-01-11T04:54:08.421Z,81.97
2017-01-11T04:55:07.967Z,81.68
2017-01-11T04:56:07.504Z,82.32
2017-01-11T04:57:08.045Z,81.63
2017-01-11T04:58:07.529Z,81.97
2017-01-11T04:59:08.361Z,82.25
2017-01-11T05:00:07.926Z,80.29
2017-01-11T05:01:08.449Z,80.87
2017-01-11T05:02:07.880Z,80.68
2017-01-11T05:03:08.479Z,80.87
2017-01-11T05:04:08.066Z,81.48
2017-01-11T05:05:07.737Z,81.75
2017-01-11T05:06:08.311Z,81.34
2017-01-11T05:07:08.090Z,81.77
2017-01-11T05:08:07.643Z,81.25
2017-01-11T05:09:08.439Z,81.33
2017-01-11T05:10:28.619Z,81.38
2017-01-11T05:11:08.135Z,81.85
2017-01-11T05:12:07.950Z,81.79
2017-01-11T05:13:07.411Z,81.63
2017-01-11T05:14:07.662Z,81.11
2017-01-11T05:15:08.209Z,82.15
2017-01-11T05:16:07.849Z,81.80
2017-01-11T05:17:08.563Z,82.24
2017-01-11T05:18:08.186Z,81.84
2017-01-11T05:19:07.718Z,81.99
2017-01-11T05:20:08.261Z,82.38
2017-01-11T05:21:07.982Z,80.93
2017-01-11T05:22:07.535Z,80.41
2017-01-11T05:23:08.148Z,81.09
2017-01-11T05:24:07.725Z,80.85
2017-01-11T05:25:11.180Z,80.42
2017-01-11T05:26:07.718Z,80.53
2017-01-11T05:27:08.214Z,79.61
2017-01-11T05:28:07.738Z,80.18
2017-01-11T05:29:08.564Z,79.91
2017-01-11T05:30:08.170Z,80.74
2017-01-11T05:31:07.695Z,81.67
2017-01-11T05:32:08.198Z,81.25
2017-01-11T05:33:07.715Z,80.90
2017-01-11T05:34:08.307Z,81.69
2017-01-11T05:35:07.764Z,82.13
2017-01-11T05:36:08.462Z,81.41
2017-01-11T05:37:08.035Z,82.06
2017-01-11T05:38:07.650Z,82.39
2017-01-11T05:39:08.212Z,81.61
2017-01-11T05:40:07.822Z,82.01
2017-01-11T05:41:08.675Z,81.84
2017-01-11T05:42:08.223Z,80.75
2017-01-11T05:43:07.808Z,81.07
2017-01-11T05:44:08.584Z,81.12
2017-01-11T05:45:08.131Z,82.20
2017-01-11T05:46:08.834Z,81.71
2017-01-11T05:47:08.423Z,81.70
2017-01-11T05:48:08.292Z,81.61
2017-01-11T05:49:07.960Z,81.02
2017-01-11T05:50:07.473Z,81.65
2017-01-11T05:51:08.041Z,81.61
2017-01-11T05:52:07.569Z,81.39
2017-01-11T05:53:08.444Z,81.60
2017-01-11T05:54:09.291Z,81.84
2017-01-11T05:55:07.869Z,83.26
2017-01-11T05:56:08.450Z,83.85
2017-01-11T05:57:08.330Z,82.63
2017-01-11T05:58:07.836Z,82.74
2017-01-11T05:59:08.661Z,81.81
2017-01-11T06:00:08.446Z,82.68
2017-01-11T06:01:27.525Z,82.31
2017-01-11T06:02:08.145Z,82.55
2017-01-11T06:03:07.765Z,82.83
2017-01-11T06:04:08.346Z,82.62
2017-01-11T06:05:07.904Z,82.72
2017-01-11T06:06:08.518Z,82.86
2017-01-11T06:07:08.107Z,82.64
2017-01-11T06:08:08.718Z,82.41
2017-01-11T06:09:08.214Z,82.55
2017-01-11T06:10:07.901Z,82.19
2017-01-11T06:11:09.324Z,83.16
2017-01-11T06:12:07.871Z,81.92
2017-01-11T06:13:08.411Z,82.49
2017-01-11T06:14:07.945Z,82.81
2017-01-11T06:15:07.593Z,83.02
2017-01-11T06:16:18.065Z,82.98
2017-01-11T06:17:07.800Z,83.07
2017-01-11T06:18:08.460Z,83.20
2017-01-11T06:19:08.300Z,83.26
2017-01-11T06:20:07.826Z,82.95
2017-01-11T06:21:08.370Z,82.74
2017-01-11T06:22:07.885Z,82.95
2017-01-11T06:23:08.452Z,82.67
2017-01-11T06:24:07.936Z,83.28
2017-01-11T06:25:07.555Z,82.83
2017-01-11T06:26:08.135Z,82.25
2017-01-11T06:27:07.676Z,82.29
2017-01-11T06:28:08.252Z,82.42
2017-01-11T06:29:07.745Z,82.82
2017-01-11T06:30:08.308Z,83.18
2017-01-11T06:31:08.062Z,83.28
2017-01-11T06:32:07.645Z,83.75
2017-01-11T06:33:08.191Z,83.50
2017-01-11T06:34:10.051Z,83.04
2017-01-11T06:35:07.699Z,84.08
2017-01-11T06:36:08.274Z,83.82
2017-01-11T06:37:08.015Z,83.22
2017-01-11T06:38:07.518Z,83.36
2017-01-11T06:39:08.028Z,83.27
2017-01-11T06:40:07.907Z,82.97
2017-01-11T06:41:08.486Z,83.29
2017-01-11T06:42:08.112Z,83.63
2017-01-11T06:43:07.890Z,83.65
2017-01-11T06:44:08.492Z,83.71
2017-01-11T06:45:08.050Z,84.03
2017-01-11T06:46:07.552Z,84.00
2017-01-11T06:47:08.141Z,84.35
2017-01-11T06:48:07.712Z,83.33
2017-01-11T06:49:08.326Z,83.95
2017-01-11T06:50:07.909Z,84.08
2017-01-11T06:51:08.457Z,82.91
2017-01-11T06:52:08.039Z,83.28
2017-01-11T06:53:07.705Z,83.44
2017-01-11T06:54:08.273Z,83.41
2017-01-11T06:55:07.848Z,83.27
2017-01-11T06:56:08.293Z,83.52
2017-01-11T06:57:08.422Z,84.16
2017-01-11T06:58:08.030Z,82.97
2017-01-11T06:59:07.524Z,83.30
2017-01-11T07:00:08.124Z,82.99
2017-01-11T07:01:07.699Z,84.30
2017-01-11T07:02:08.396Z,84.45
2017-01-11T07:03:07.970Z,84.60
2017-01-11T07:04:07.747Z,84.75
2017-01-11T07:05:09.207Z,84.40
2017-01-11T07:06:07.791Z,84.22
2017-01-11T07:07:08.408Z,83.55
2017-01-11T07:08:07.931Z,82.78
2017-01-11T07:09:07.468Z,82.99
2017-01-11T07:10:08.081Z,83.08
2017-01-11T07:11:07.692Z,83.29
2017-01-11T07:12:08.308Z,83.80
2017-01-11T07:13:07.859Z,84.04
2017-01-11T07:14:08.720Z,84.86
2017-01-11T07:15:08.364Z,84.67
2017-01-11T07:16:07.878Z,84.66
2017-01-11T07:17:08.662Z,84.88
2017-01-11T07:18:08.214Z,84.93
2017-01-11T07:19:07.797Z,84.90
2017-01-11T07:20:08.278Z,84.11
2017-01-11T07:21:07.864Z,84.29
2017-01-11T07:22:08.601Z,84.47
2017-01-11T07:23:08.198Z,84.69
2017-01-11T07:24:07.969Z,85.21
2017-01-11T07:25:07.552Z,84.09
2017-01-11T07:26:08.154Z,85.11
2017-01-11T07:27:07.639Z,84.72
2017-01-11T07:28:08.162Z,85.03
2017-01-11T07:29:07.625Z,85.00
2017-01-11T07:30:08.242Z,85.10
2017-01-11T07:31:07.749Z,84.76
2017-01-11T07:32:09.199Z,84.60
2017-01-11T07:33:07.745Z,84.13
2017-01-11T07:34:08.345Z,83.81
2017-01-11T07:35:07.905Z,84.48
2017-01-11T07:36:08.637Z,84.35
2017-01-11T07:37:08.277Z,84.90
2017-01-11T07:38:07.785Z,85.22
2017-01-11T07:39:08.357Z,85.11
2017-01-11T07:40:08.252Z,84.60
2017-01-11T07:41:07.788Z,85.31
2017-01-11T07:42:08.381Z,84.93
2017-01-11T07:43:08.021Z,85.65
2017-01-11T07:44:07.571Z,86.05
2017-01-11T07:45:08.225Z,86.33
2017-01-11T07:46:08.041Z,85.91
2017-01-11T07:47:07.567Z,85.75
2017-01-11T07:48:08.221Z,85.87
2017-01-11T07:49:07.807Z,86.11
2017-01-11T07:50:08.386Z,86.53
2017-01-11T07:51:07.866Z,85.85
2017-01-11T07:52:08.424Z,85.84
2017-01-11T07:53:08.089Z,86.06
2017-01-11T07:54:07.633Z,85.95
2017-01-11T07:55:08.262Z,86.19
2017-01-11T07:56:08.028Z,85.71
2017-01-11T07:57:07.510Z,85.01
2017-01-11T07:58:08.093Z,85.60
2017-01-11T07:59:07.647Z,86.32
2017-01-11T08:00:08.421Z,86.67
2017-01-11T08:01:08.115Z,86.04
2017-01-11T08:02:07.923Z,86.20
2017-01-11T08:03:07.502Z,86.73
2017-01-11T08:04:08.030Z,86.66
2017-01-11T08:05:07.603Z,86.25
2017-01-11T08:06:08.193Z,86.08
2017-01-11T08:07:07.979Z,86.15
2017-01-11T08:08:07.453Z,85.37
2017-01-11T08:09:07.980Z,85.19
2017-01-11T08:10:07.804Z,86.16
2017-01-11T08:11:08.349Z,86.36
2017-01-11T08:12:07.939Z,86.63
2017-01-11T08:13:07.562Z,85.87
2017-01-11T08:14:08.065Z,86.02
2017-01-11T08:15:07.944Z,85.72
2017-01-11T08:16:07.826Z,86.08
2017-01-11T08:17:08.470Z,86.00
2017-01-11T08:18:08.023Z,85.10
2017-01-11T08:19:07.859Z,83.95
2017-01-11T08:20:08.414Z,85.38
2017-01-11T08:21:07.966Z,85.37
2017-01-11T08:22:07.494Z,85.04
2017-01-11T08:23:08.354Z,84.42
2017-01-11T08:24:07.916Z,84.77
2017-01-11T08:25:07.465Z,85.17
2017-01-11T08:26:08.038Z,85.93
2017-01-11T08:27:07.624Z,85.21
2017-01-11T08:28:08.212Z,85.76
2017-01-11T08:29:07.695Z,85.88
2017-01-11T08:30:08.310Z,85.53
2017-01-11T08:31:08.095Z,86.28
2017-01-11T08:32:07.649Z,86.61
2017-01-11T08:33:08.270Z,86.29
2017-01-11T08:34:07.816Z,85.54
2017-01-11T08:35:08.315Z,85.19
2017-01-11T08:36:07.795Z,85.01
2017-01-11T08:37:08.395Z,84.66
2017-01-11T08:38:07.947Z,84.73
2017-01-11T08:39:07.423Z,84.97
2017-01-11T08:40:07.795Z,85.14
2017-01-11T08:41:08.370Z,85.02
2017-01-11T08:42:07.947Z,84.58
2017-01-11T08:43:07.768Z,85.55
2017-01-11T08:44:08.361Z,85.33
2017-01-11T08:45:07.929Z,85.74
2017-01-11T08:46:07.772Z,85.52
2017-01-11T08:47:08.331Z,85.47
2017-01-11T08:48:07.941Z,84.47
2017-01-11T08:49:07.572Z,84.48
2017-01-11T08:50:08.127Z,84.78
2017-01-11T08:51:07.691Z,84.20
2017-01-11T08:52:08.457Z,84.75
2017-01-11T08:53:08.068Z,85.93
2017-01-11T08:54:07.650Z,85.43
2017-01-11T08:55:08.513Z,85.66
2017-01-11T08:56:08.089Z,86.04
2017-01-11T08:57:07.638Z,85.12
2017-01-11T08:58:08.513Z,84.92
2017-01-11T08:59:08.070Z,84.69
2017-01-11T09:00:07.698Z,85.15
2017-01-11T09:01:08.288Z,85.67
2017-01-11T09:02:07.966Z,85.48
2017-01-11T09:03:07.438Z,85.44
2017-01-11T09:04:08.250Z,85.19
2017-01-11T09:05:08.123Z,85.65
2017-01-11T09:06:07.619Z,85.23
2017-01-11T09:07:08.144Z,85.09
2017-01-11T09:08:07.740Z,85.64
2017-01-11T09:09:08.246Z,85.62
2017-01-11T09:10:13.283Z,85.96
2017-01-11T09:11:07.771Z,86.48
2017-01-11T09:12:08.233Z,85.59
2017-01-11T09:13:07.811Z,85.48
2017-01-11T09:14:08.603Z,85.73
2017-01-11T09:15:08.384Z,85.90
2017-01-11T09:16:07.914Z,86.01
2017-01-11T09:17:08.612Z,85.20
2017-01-11T09:18:08.191Z,86.04
2017-01-11T09:19:07.775Z,85.17
2017-01-11T09:20:08.384Z,85.75
2017-01-11T09:21:07.865Z,85.88
2017-01-11T09:22:08.452Z,85.67
2017-01-11T09:23:08.005Z,85.25
2017-01-11T09:24:07.800Z,85.84
2017-01-11T09:25:08.340Z,85.78
2017-01-11T09:26:07.866Z,84.85
2017-01-11T09:27:08.389Z,84.97
2017-01-11T09:28:07.870Z,85.03
2017-01-11T09:29:08.507Z,84.91
2017-01-11T09:30:08.059Z,85.23
2017-01-11T09:31:07.540Z,84.94
2017-01-11T09:32:08.114Z,84.40
2017-01-11T09:33:07.611Z,84.22
2017-01-11T09:34:08.285Z,84.45
2017-01-11T09:35:07.777Z,84.73
2017-01-11T09:36:08.559Z,84.06
2017-01-11T09:37:08.060Z,84.24
2017-01-11T09:38:07.697Z,84.54
2017-01-11T09:39:08.301Z,84.32
2017-01-11T09:40:07.868Z,85.04
2017-01-11T09:41:08.472Z,85.19
2017-01-11T09:42:08.035Z,85.14
2017-01-11T09:43:22.048Z,85.17
2017-01-11T09:44:07.709Z,84.92
2017-01-11T09:45:08.281Z,84.96
2017-01-11T09:46:07.865Z,85.59
2017-01-11T09:47:08.704Z,86.92
2017-01-11T09:48:08.561Z,86.72
2017-01-11T09:49:08.104Z,86.31
2017-01-11T09:50:08.037Z,85.50
2017-01-11T09:51:17.185Z,84.35
2017-01-11T09:52:07.687Z,84.41
2017-01-11T09:53:08.279Z,84.45
2017-01-11T09:54:07.811Z,84.36
2017-01-11T09:55:08.383Z,84.80
2017-01-11T09:56:07.962Z,84.82
2017-01-11T09:57:07.578Z,84.91
2017-01-11T09:58:08.197Z,84.67
2017-01-11T09:59:07.672Z,84.15
2017-01-11T10:00:08.259Z,84.83
2017-01-11T10:01:07.710Z,84.32
2017-01-11T10:02:08.279Z,84.96
2017-01-11T10:03:07.832Z,84.05
2017-01-11T10:04:08.400Z,83.36
2017-01-11T10:05:07.980Z,85.07
2017-01-11T10:06:07.830Z,85.05
2017-01-11T10:07:08.391Z,84.68
2017-01-11T10:08:08.221Z,83.89
2017-01-11T10:09:07.771Z,83.81
2017-01-11T10:10:08.699Z,84.34
2017-01-11T10:11:08.262Z,83.77
2017-01-11T10:12:07.841Z,83.78
2017-01-11T10:13:08.359Z,83.45
2017-01-11T10:14:07.805Z,83.46
2017-01-11T10:15:08.421Z,83.66
2017-01-11T10:16:07.907Z,83.56
2017-01-11T10:17:08.552Z,84.40
2017-01-11T10:18:08.107Z,84.57
2017-01-11T10:19:07.909Z,83.97
2017-01-11T10:20:08.523Z,84.02
2017-01-11T10:21:08.039Z,84.55
2017-01-11T10:22:07.502Z,84.08
2017-01-11T10:23:08.157Z,84.55
2017-01-11T10:24:07.862Z,83.70
2017-01-11T10:25:08.468Z,83.41
2017-01-11T10:26:08.021Z,83.82
2017-01-11T10:27:07.520Z,84.82
2017-01-11T10:28:08.373Z,84.44
2017-01-11T10:29:08.140Z,84.74
2017-01-11T10:30:07.931Z,84.32
2017-01-11T10:31:08.360Z,84.20
2017-01-11T10:32:08.147Z,84.78
2017-01-11T10:33:26.603Z,84.08
2017-01-11T10:34:08.261Z,85.07
2017-01-11T10:35:07.830Z,85.34
2017-01-11T10:36:08.401Z,85.27
2017-01-11T10:37:07.933Z,84.53
2017-01-11T10:38:07.509Z,84.04
2017-01-11T10:39:08.040Z,84.19
2017-01-11T10:40:07.865Z,84.81
2017-01-11T10:41:08.466Z,84.57
2017-01-11T10:42:08.320Z,84.65
2017-01-11T10:43:07.780Z,84.94
2017-01-11T10:44:08.340Z,86.04
2017-01-11T10:45:07.871Z,86.75
2017-01-11T10:46:08.381Z,86.64
2017-01-11T10:47:07.880Z,86.13
2017-01-11T10:48:08.371Z,85.71
2017-01-11T10:49:07.874Z,86.06
2017-01-11T10:50:08.396Z,85.51
2017-01-11T10:51:08.032Z,85.75
2017-01-11T10:52:07.525Z,86.27
2017-01-11T10:53:08.074Z,86.14
2017-01-11T10:54:07.590Z,85.76
2017-01-11T10:55:08.364Z,86.12
2017-01-11T10:56:07.953Z,85.09
2017-01-11T10:57:07.539Z,85.32
2017-01-11T10:58:08.120Z,85.88
2017-01-11T10:59:07.731Z,85.06
2017-01-11T11:00:08.300Z,85.36
2017-01-11T11:01:07.800Z,84.88
2017-01-11T11:02:08.559Z,84.93
2017-01-11T11:03:08.395Z,84.50
2017-01-11T11:04:08.222Z,83.99
2017-01-11T11:05:07.820Z,84.78
2017-01-11T11:06:08.411Z,84.54
2017-01-11T11:07:07.974Z,84.50
2017-01-11T11:08:07.499Z,84.33
2017-01-11T11:09:07.994Z,84.77
2017-01-11T11:10:07.574Z,84.50
2017-01-11T11:11:08.115Z,84.21
2017-01-11T11:12:07.683Z,84.24
2017-01-11T11:13:08.159Z,84.21
2017-01-11T11:14:07.742Z,84.13
2017-01-11T11:15:08.243Z,84.51
2017-01-11T11:16:07.670Z,83.86
2017-01-11T11:17:08.401Z,85.09
2017-01-11T11:18:07.983Z,84.63
2017-01-11T11:19:07.520Z,85.67
2017-01-11T11:20:07.976Z,85.14
2017-01-11T11:21:08.486Z,85.02
2017-01-11T11:22:08.049Z,84.84
2017-01-11T11:23:07.532Z,84.50
2017-01-11T11:24:08.129Z,83.59
2017-01-11T11:25:07.644Z,83.75
2017-01-11T11:26:08.471Z,84.76
2017-01-11T11:27:07.941Z,85.18
2017-01-11T11:28:07.560Z,84.71
2017-01-11T11:29:08.123Z,84.26
2017-01-11T11:30:07.593Z,84.17
2017-01-11T11:31:08.130Z,83.69
2017-01-11T11:32:07.689Z,83.89
2017-01-11T11:33:08.309Z,84.42
2017-01-11T11:34:08.252Z,84.73
2017-01-11T11:35:07.700Z,84.81
2017-01-11T11:36:08.943Z,84.43
2017-01-11T11:37:07.622Z,84.53
2017-01-11T11:38:08.206Z,83.83
2017-01-11T11:39:07.752Z,85.10
2017-01-11T11:40:08.212Z,85.14
2017-01-11T11:41:07.743Z,84.51
2017-01-11T11:42:08.352Z,85.07
2017-01-11T11:43:07.922Z,85.36
2017-01-11T11:44:08.474Z,85.39
2017-01-11T11:45:07.989Z,85.01
2017-01-11T11:46:07.527Z,84.76
2017-01-11T11:47:08.079Z,84.67
2017-01-11T11:48:07.603Z,84.10
2017-01-11T11:49:08.227Z,84.02
2017-01-11T11:50:07.803Z,83.93
2017-01-11T11:51:08.655Z,84.20
2017-01-11T11:52:08.286Z,84.81
2017-01-11T11:53:07.855Z,84.78
2017-01-11T11:54:08.358Z,83.70
2017-01-11T11:55:07.924Z,83.51
2017-01-11T11:56:08.433Z,82.53
2017-01-11T11:57:08.287Z,82.77
2017-01-11T11:58:08.155Z,82.27
2017-01-11T11:59:07.648Z,82.34
2017-01-11T12:00:08.167Z,82.00
2017-01-11T12:01:07.694Z,82.79
2017-01-11T12:02:08.244Z,82.94
2017-01-11T12:03:07.805Z,83.72
2017-01-11T12:04:08.367Z,83.17
2017-01-11T12:05:08.173Z,83.43
2017-01-11T12:06:08.042Z,82.57
2017-01-11T12:07:07.565Z,82.66
2017-01-11T12:08:08.139Z,82.06
2017-01-11T12:09:07.660Z,82.80
2017-01-11T12:10:08.221Z,82.76
2017-01-11T12:11:07.835Z,81.92
2017-01-11T12:12:08.466Z,82.51
2017-01-11T12:13:07.966Z,83.04
2017-01-11T12:14:07.452Z,82.62
2017-01-11T12:15:07.940Z,81.91
2017-01-11T12:16:07.513Z,81.53
2017-01-11T12:17:08.275Z,81.69
2017-01-11T12:18:07.801Z,82.28
2017-01-11T12:19:08.461Z,83.07
2017-01-11T12:20:07.964Z,83.45
2017-01-11T12:21:07.444Z,83.69
2017-01-11T12:22:07.925Z,83.58
2017-01-11T12:23:08.492Z,82.66
2017-01-11T12:24:07.957Z,81.99
2017-01-11T12:25:07.477Z,80.86
2017-01-11T12:26:08.105Z,80.04
2017-01-11T12:27:07.587Z,80.27
2017-01-11T12:28:08.147Z,80.72
2017-01-11T12:29:07.789Z,81.13
2017-01-11T12:30:08.537Z,79.90
2017-01-11T12:31:08.021Z,80.01
2017-01-11T12:32:07.497Z,79.95
2017-01-11T12:33:08.049Z,79.74
2017-01-11T12:34:07.596Z,79.80
2017-01-11T12:35:08.302Z,78.92
2017-01-11T12:36:07.837Z,80.20
2017-01-11T12:37:08.480Z,80.92
2017-01-11T12:38:26.844Z,80.78
2017-01-11T12:39:08.427Z,80.74
2017-01-11T12:40:08.047Z,79.86
2017-01-11T12:41:07.592Z,79.84
2017-01-11T12:42:08.093Z,80.41
2017-01-11T12:43:07.568Z,79.93
2017-01-11T12:44:08.205Z,79.71
2017-01-11T12:45:07.701Z,79.44
2017-01-11T12:46:08.317Z,79.59
2017-01-11T12:47:07.823Z,79.26
2017-01-11T12:48:08.437Z,79.53
2017-01-11T12:49:07.967Z,79.97
2017-01-11T12:50:07.438Z,79.97
2017-01-11T12:51:08.289Z,79.67
2017-01-11T12:52:07.883Z,79.60